Time;durP1;ratioP1;P1;durP2;ratioP2;P2;SDS_P1;SDS_P2;PMS_P1;PMS_P2;Temp;Humidity;BMP_temperature;BMP_pressure;BME280_temperature;BME280_humidity;BME280_pressure;Samples;Min_cycle;Max_cycle;Signal;HPM_P1;HPM_P2
2022/09/28 00:02:26;;;;;;;9.37;7.97;;;10.20;99.90;;;;;;5075487;28;20455;-82
2022/09/28 00:04:54;;;;;;;9.40;7.67;;;10.30;99.90;;;;;;5066890;28;20859;-83
2022/09/28 00:07:20;;;;;;;11.77;8.03;;;10.20;99.90;;;;;;5068859;28;20468;-82
2022/09/28 00:09:47;;;;;;;10.60;7.23;;;10.10;99.90;;;;;;5065691;28;20844;-82
2022/09/28 00:12:15;;;;;;;8.17;6.97;;;10.20;99.90;;;;;;5077228;28;20542;-82
2022/09/28 00:14:43;;;;;;;9.20;7.57;;;10.20;99.90;;;;;;5086544;28;20489;-83
2022/09/28 00:17:11;;;;;;;9.23;7.13;;;10.20;99.90;;;;;;5067603;28;20452;-83
2022/09/28 00:19:38;;;;;;;12.27;8.43;;;10.20;99.90;;;;;;5081367;28;20484;-82
2022/09/28 00:22:05;;;;;;;6.83;5.83;;;10.30;99.90;;;;;;5071009;28;21000;-83
2022/09/28 00:24:32;;;;;;;10.40;9.17;;;10.10;99.90;;;;;;5064951;28;20455;-82
2022/09/28 00:27:01;;;;;;;10.60;7.37;;;10.20;99.90;;;;;;5080536;28;20450;-82
2022/09/28 00:29:31;;;;;;;8.17;6.13;;;10.10;99.90;;;;;;5066052;28;20475;-83
2022/09/28 00:32:01;;;;;;;8.00;7.20;;;10.10;99.90;;;;;;5072261;28;20458;-84
2022/09/28 00:34:30;;;;;;;7.47;6.30;;;10.20;99.90;;;;;;5065174;28;20444;-82
2022/09/28 00:36:57;;;;;;;9.20;7.60;;;10.20;99.90;;;;;;5079224;28;20455;-83
2022/09/28 00:39:25;;;;;;;7.80;5.87;;;10.20;99.90;;;;;;5067692;28;20461;-82
2022/09/28 00:41:53;;;;;;;8.70;5.93;;;10.20;99.90;;;;;;5077603;28;20518;-83
2022/09/28 00:44:38;;;;;;;7.30;6.00;;;10.10;99.90;;;;;;5084774;28;20462;-83
2022/09/28 00:47:14;;;;;;;6.40;5.57;;;10.10;99.90;;;;;;5081683;28;20542;-83
2022/09/28 00:49:45;;;;;;;8.20;6.70;;;10.10;99.90;;;;;;5068151;28;20481;-81
2022/09/28 00:52:15;;;;;;;6.47;5.43;;;10.10;99.90;;;;;;5072820;28;20450;-84
2022/09/28 00:54:45;;;;;;;7.90;5.13;;;10.10;99.90;;;;;;5084695;28;20446;-83
2022/09/28 00:57:12;;;;;;;8.47;5.90;;;10.10;99.90;;;;;;5070509;28;20454;-82
2022/09/28 00:59:41;;;;;;;5.67;5.17;;;10.00;99.90;;;;;;5082157;28;20469;-83
2022/09/28 01:02:09;;;;;;;6.10;4.80;;;10.00;99.90;;;;;;5072469;28;20468;-83
2022/09/28 01:04:37;;;;;;;7.60;4.47;;;10.00;99.90;;;;;;5075027;28;20454;-82
2022/09/28 01:07:04;;;;;;;6.60;5.67;;;9.90;99.90;;;;;;5084251;28;20454;-83
2022/09/28 01:09:32;;;;;;;6.57;4.67;;;9.90;99.90;;;;;;5074847;28;20482;-84
2022/09/28 01:11:59;;;;;;;5.00;4.50;;;9.90;99.90;;;;;;5072949;28;20546;-83
2022/09/28 01:14:26;;;;;;;6.23;4.77;;;10.00;99.90;;;;;;5070669;28;20533;-83
2022/09/28 01:17:02;;;;;;;6.17;4.13;;;10.00;99.90;;;;;;5083705;28;21037;-83
2022/09/28 01:19:47;;;;;;;6.73;4.90;;;10.00;99.90;;;;;;5068301;28;20557;-85
2022/09/28 01:22:28;;;;;;;6.10;4.10;;;10.00;99.90;;;;;;5062291;28;20458;-84
2022/09/28 01:25:06;;;;;;;6.17;4.17;;;10.00;99.90;;;;;;5066612;28;20443;-82
2022/09/28 01:27:39;;;;;;;4.97;4.17;;;9.90;99.90;;;;;;5064243;28;20447;-83
2022/09/28 01:30:09;;;;;;;5.57;3.87;;;9.90;99.90;;;;;;5058450;28;20573;-82
2022/09/28 01:32:46;;;;;;;5.70;4.50;;;10.00;99.90;;;;;;5083273;28;20451;-83
2022/09/28 01:35:17;;;;;;;6.33;4.80;;;9.90;99.90;;;;;;5078857;28;20452;-83
2022/09/28 01:37:50;;;;;;;6.40;5.80;;;9.90;99.90;;;;;;5071582;28;20437;-83
2022/09/28 01:40:18;;;;;;;7.23;5.73;;;9.70;99.90;;;;;;5062753;28;20475;-83
2022/09/28 01:42:49;;;;;;;7.07;5.77;;;9.90;99.90;;;;;;5063467;28;20455;-83
2022/09/28 01:45:21;;;;;;;8.60;6.63;;;9.90;99.90;;;;;;5063056;28;21021;-84
2022/09/28 01:47:50;;;;;;;6.30;5.67;;;9.80;99.90;;;;;;5079712;28;20445;-84
2022/09/28 01:50:20;;;;;;;10.33;7.73;;;9.90;99.90;;;;;;5075058;28;20491;-83
2022/09/28 01:52:52;;;;;;;12.23;6.73;;;9.80;99.90;;;;;;5076917;28;20458;-85
2022/09/28 01:55:27;;;;;;;8.70;6.60;;;9.90;99.90;;;;;;5070572;28;20465;-85
2022/09/28 01:57:59;;;;;;;6.33;5.73;;;9.90;99.90;;;;;;5066352;28;20445;-84
2022/09/28 02:00:27;;;;;;;7.83;6.40;;;9.90;99.90;;;;;;5083305;28;20463;-84
2022/09/28 02:02:58;;;;;;;7.60;6.30;;;10.00;99.90;;;;;;5064783;28;20514;-84
2022/09/28 02:05:29;;;;;;;7.10;6.13;;;10.00;99.90;;;;;;5044188;28;20515;-85
2022/09/28 02:08:03;;;;;;;7.70;6.27;;;10.00;99.90;;;;;;5049752;28;20447;-84
2022/09/28 02:10:35;;;;;;;6.90;6.20;;;10.00;99.90;;;;;;5083150;28;20527;-83
2022/09/28 02:13:07;;;;;;;10.50;6.67;;;10.00;99.90;;;;;;5048690;28;20946;-86
2022/09/28 02:15:41;;;;;;;7.70;6.90;;;10.00;99.90;;;;;;5073862;28;20476;-84
2022/09/28 02:18:09;;;;;;;7.03;5.50;;;9.90;99.90;;;;;;5066278;28;20458;-85
2022/09/28 02:20:38;;;;;;;7.17;6.40;;;10.00;99.90;;;;;;5082045;28;21039;-87
2022/09/28 02:23:07;;;;;;;10.00;8.17;;;10.00;99.90;;;;;;5055029;28;20548;-84
2022/09/28 02:25:38;;;;;;;7.80;6.67;;;9.90;99.90;;;;;;5063611;28;20549;-83
2022/09/28 02:28:07;;;;;;;8.30;7.10;;;9.90;99.90;;;;;;5077309;28;20452;-84
2022/09/28 02:30:38;;;;;;;6.70;5.93;;;9.80;99.90;;;;;;5067248;28;20482;-85
2022/09/28 02:33:10;;;;;;;9.63;7.13;;;9.80;99.90;;;;;;5054202;28;20451;-84
2022/09/28 02:35:38;;;;;;;8.60;6.87;;;9.80;99.90;;;;;;5066259;28;20439;-84
2022/09/28 02:38:05;;;;;;;9.40;6.60;;;9.90;99.90;;;;;;5083794;28;20465;-82
2022/09/28 02:40:34;;;;;;;8.57;7.67;;;9.80;99.90;;;;;;5060459;28;20480;-86
2022/09/28 02:43:13;;;;;;;9.00;6.83;;;9.90;99.90;;;;;;5072638;28;20962;-85
2022/09/28 02:45:51;;;;;;;13.60;8.97;;;9.90;99.90;;;;;;5075143;28;20988;-82
2022/09/28 02:48:28;;;;;;;9.20;8.20;;;9.90;99.90;;;;;;5077836;28;20512;-83
2022/09/28 02:51:02;;;;;;;12.80;9.63;;;9.90;99.90;;;;;;5067314;28;20486;-82
2022/09/28 02:53:59;;;;;;;11.07;9.80;;;9.80;99.90;;;;;;5076088;28;20477;-83
2022/09/28 02:56:46;;;;;;;14.90;11.57;;;9.80;99.90;;;;;;5078704;28;20482;-84
2022/09/28 02:59:25;;;;;;;12.20;10.40;;;9.80;99.90;;;;;;5069176;28;20991;-85
2022/09/28 03:01:58;;;;;;;17.73;13.03;;;9.80;99.90;;;;;;5079419;28;20442;-84
2022/09/28 03:04:33;;;;;;;17.37;13.80;;;9.80;99.90;;;;;;5062828;28;20476;-85
2022/09/28 03:07:05;;;;;;;16.07;13.93;;;9.80;99.90;;;;;;5076527;28;20443;-84
2022/09/28 03:09:37;;;;;;;18.40;14.83;;;9.80;99.90;;;;;;5072352;28;20447;-84
2022/09/28 03:12:08;;;;;;;19.70;14.60;;;9.80;99.90;;;;;;5066863;28;20457;-84
2022/09/28 03:14:36;;;;;;;18.77;13.17;;;9.80;99.90;;;;;;5074915;28;20458;-84
2022/09/28 03:17:04;;;;;;;21.13;15.13;;;9.80;99.90;;;;;;5075125;28;20539;-84
2022/09/28 03:19:35;;;;;;;19.97;15.10;;;9.80;99.90;;;;;;5071220;28;20522;-84
2022/09/28 03:22:02;;;;;;;19.30;14.97;;;9.80;99.90;;;;;;5066131;28;20482;-85
2022/09/28 03:24:29;;;;;;;18.20;14.60;;;9.80;99.90;;;;;;5067058;28;20453;-85
2022/09/28 03:26:56;;;;;;;21.17;15.50;;;9.80;99.90;;;;;;5076447;28;20866;-85
2022/09/28 03:29:22;;;;;;;18.13;14.53;;;9.80;99.90;;;;;;5078769;28;20522;-85
2022/09/28 03:31:50;;;;;;;18.10;14.60;;;9.80;99.90;;;;;;5068728;28;20489;-84
2022/09/28 03:34:17;;;;;;;16.13;13.00;;;9.80;99.90;;;;;;5074103;28;20458;-85
2022/09/28 03:36:44;;;;;;;14.60;12.27;;;9.80;99.90;;;;;;5075111;28;20486;-85
2022/09/28 03:39:11;;;;;;;15.53;13.17;;;9.80;99.90;;;;;;5083469;28;20505;-84
2022/09/28 03:41:38;;;;;;;15.63;12.03;;;9.70;99.90;;;;;;5087194;28;20466;-84
2022/09/28 03:44:05;;;;;;;14.00;12.43;;;9.80;99.90;;;;;;5081494;28;20550;-86
2022/09/28 03:46:31;;;;;;;15.17;12.40;;;9.80;99.90;;;;;;5082411;28;20454;-85
2022/09/28 03:48:59;;;;;;;13.90;12.40;;;9.80;99.90;;;;;;5083486;28;20457;-85
2022/09/28 03:51:26;;;;;;;14.07;11.77;;;9.80;99.90;;;;;;5070915;28;20562;-85
2022/09/28 03:53:53;;;;;;;18.43;12.90;;;9.60;99.90;;;;;;5071158;28;20455;-85
2022/09/28 03:56:20;;;;;;;13.13;11.73;;;9.70;99.90;;;;;;5086982;28;20462;-85
2022/09/28 03:58:47;;;;;;;14.67;12.33;;;9.80;99.90;;;;;;5083727;28;20455;-84
2022/09/28 04:01:15;;;;;;;13.20;10.10;;;9.80;99.90;;;;;;5087194;28;20537;-84
2022/09/28 04:03:42;;;;;;;13.27;11.50;;;9.80;99.90;;;;;;5070855;28;20481;-84
2022/09/28 04:06:11;;;;;;;15.23;11.30;;;9.80;99.90;;;;;;5084782;28;20445;-85
2022/09/28 04:08:37;;;;;;;12.37;10.67;;;9.80;99.90;;;;;;5079020;28;20451;-85
2022/09/28 04:11:05;;;;;;;15.83;12.10;;;9.80;99.90;;;;;;5065687;28;20578;-83
2022/09/28 04:13:31;;;;;;;14.67;12.10;;;9.80;99.90;;;;;;5064630;28;20455;-84
2022/09/28 04:16:00;;;;;;;20.77;13.17;;;9.70;99.90;;;;;;5086080;28;20469;-84
2022/09/28 04:18:28;;;;;;;19.63;15.00;;;9.70;99.90;;;;;;5083226;28;20457;-85
2022/09/28 04:21:05;;;;;;;17.03;12.77;;;9.70;99.90;;;;;;5075555;28;20541;-85
2022/09/28 04:23:34;;;;;;;13.53;12.13;;;9.70;99.90;;;;;;5082899;28;20467;-86
2022/09/28 04:26:01;;;;;;;21.03;16.50;;;9.70;99.90;;;;;;5062953;28;20455;-86
2022/09/28 04:31:16;;;;;;;23.83;18.73;;;9.70;99.90;;;;;;5074099;28;20530;-86
2022/09/28 04:33:43;;;;;;;22.93;18.07;;;9.60;99.90;;;;;;5067455;28;20462;-86
2022/09/28 04:36:10;;;;;;;19.87;15.47;;;9.70;99.90;;;;;;5074819;28;20430;-86
2022/09/28 04:38:39;;;;;;;21.30;16.53;;;9.70;99.90;;;;;;5072196;28;20521;-86
2022/09/28 04:41:07;;;;;;;21.37;16.23;;;9.80;99.90;;;;;;5063936;28;20473;-86
2022/09/28 04:43:34;;;;;;;23.30;16.97;;;9.80;99.90;;;;;;5060992;28;20450;-86
2022/09/28 04:46:01;;;;;;;21.07;16.93;;;9.80;99.90;;;;;;5056928;28;20859;-86
2022/09/28 04:48:29;;;;;;;25.93;19.70;;;9.80;99.90;;;;;;5058380;28;20451;-86
2022/09/28 04:51:02;;;;;;;27.27;20.70;;;9.70;99.90;;;;;;5072325;28;20579;-84
2022/09/28 04:53:30;;;;;;;29.13;18.67;;;9.70;99.90;;;;;;5073857;28;20458;-84
2022/09/28 04:56:00;;;;;;;29.83;22.23;;;9.80;99.90;;;;;;5063100;28;20526;-86
2022/09/28 04:58:28;;;;;;;30.87;21.20;;;9.80;99.90;;;;;;5072698;28;20454;-85
2022/09/28 05:00:58;;;;;;;32.53;19.67;;;9.80;99.90;;;;;;5082254;28;20561;-84
2022/09/28 05:03:25;;;;;;;33.17;24.83;;;9.90;99.90;;;;;;5072280;28;20456;-84
2022/09/28 05:05:52;;;;;;;27.00;20.67;;;9.80;99.90;;;;;;5067327;28;20629;-85
2022/09/28 05:08:19;;;;;;;25.27;21.20;;;9.70;99.90;;;;;;5077040;28;20458;-85
2022/09/28 05:10:46;;;;;;;24.73;20.37;;;9.80;99.90;;;;;;5061001;28;20497;-85
2022/09/28 05:13:17;;;;;;;25.60;20.37;;;9.70;99.90;;;;;;5067076;28;20457;-85
2022/09/28 05:15:44;;;;;;;32.17;23.53;;;9.80;99.90;;;;;;5079698;28;20459;-86
2022/09/28 05:18:12;;;;;;;30.30;21.80;;;9.80;99.90;;;;;;5080138;28;20461;-85
2022/09/28 05:20:41;;;;;;;27.83;22.10;;;9.80;99.90;;;;;;5074134;28;20884;-83
2022/09/28 05:23:10;;;;;;;27.00;19.00;;;9.80;99.90;;;;;;5061247;28;20474;-85
2022/09/28 05:25:37;;;;;;;24.90;19.77;;;9.80;99.90;;;;;;5065766;28;20450;-85
2022/09/28 05:28:04;;;;;;;26.30;20.77;;;9.90;99.90;;;;;;5080493;28;20539;-84
2022/09/28 05:30:32;;;;;;;28.20;21.53;;;9.80;99.90;;;;;;5064609;28;21059;-84
2022/09/28 05:32:59;;;;;;;26.23;20.07;;;9.90;99.90;;;;;;5060555;28;20459;-85
2022/09/28 05:35:26;;;;;;;28.07;21.07;;;9.80;99.90;;;;;;5061606;28;20530;-85
2022/09/28 05:37:54;;;;;;;25.70;20.93;;;9.80;99.90;;;;;;5072605;28;20456;-85
2022/09/28 05:40:20;;;;;;;26.93;20.33;;;9.80;99.90;;;;;;5063880;28;20491;-82
2022/09/28 05:42:47;;;;;;;26.67;21.37;;;9.80;99.90;;;;;;5061274;28;20518;-86
2022/09/28 05:45:15;;;;;;;26.73;22.00;;;9.80;99.90;;;;;;5064231;28;20461;-83
2022/09/28 05:47:44;;;;;;;29.63;20.33;;;9.70;99.90;;;;;;5063180;28;20482;-84
2022/09/28 05:50:14;;;;;;;25.83;21.20;;;9.70;99.90;;;;;;5074622;28;20482;-84
2022/09/28 05:52:42;;;;;;;27.57;20.10;;;9.70;99.90;;;;;;5067370;28;20505;-83
2022/09/28 05:55:09;;;;;;;24.73;20.20;;;9.70;99.90;;;;;;5057306;28;20457;-83
2022/09/28 05:57:36;;;;;;;26.83;21.60;;;9.70;99.90;;;;;;5061227;28;20455;-85
2022/09/28 06:00:04;;;;;;;28.43;23.03;;;9.70;99.90;;;;;;5071551;28;20470;-84
2022/09/28 06:02:31;;;;;;;26.83;20.83;;;9.70;99.90;;;;;;5057603;28;20947;-85
2022/09/28 06:04:59;;;;;;;26.77;21.33;;;9.70;99.90;;;;;;5061920;28;20468;-87
2022/09/28 06:07:45;;;;;;;27.70;20.80;;;9.80;99.90;;;;;;5051053;28;20474;-84
2022/09/28 06:10:12;;;;;;;29.83;22.60;;;9.80;99.90;;;;;;5057616;28;20493;-86
2022/09/28 06:12:40;;;;;;;26.30;22.10;;;9.70;99.90;;;;;;5056016;28;20909;-84
2022/09/28 06:15:12;;;;;;;28.97;20.93;;;9.80;99.90;;;;;;5052696;28;20445;-83
2022/09/28 06:17:39;;;;;;;27.57;21.20;;;9.80;99.90;;;;;;5053788;28;20461;-85
2022/09/28 06:20:08;;;;;;;24.13;20.67;;;9.80;99.90;;;;;;5057525;28;20497;-84
2022/09/28 06:22:35;;;;;;;24.10;20.07;;;9.80;99.90;;;;;;5053257;28;20447;-84
2022/09/28 06:25:02;;;;;;;22.83;18.77;;;9.90;99.90;;;;;;5067303;28;20454;-84
2022/09/28 06:27:28;;;;;;;27.83;21.93;;;9.90;99.90;;;;;;5059606;28;20461;-82
2022/09/28 06:29:55;;;;;;;26.23;20.50;;;9.90;99.90;;;;;;5066209;28;20471;-84
2022/09/28 06:32:22;;;;;;;32.53;24.80;;;9.90;99.90;;;;;;5059200;28;20503;-83
2022/09/28 06:34:49;;;;;;;24.37;21.00;;;9.80;99.90;;;;;;5054255;28;20527;-85
2022/09/28 06:37:17;;;;;;;27.97;22.93;;;9.90;99.90;;;;;;5059960;28;20486;-84
2022/09/28 06:39:43;;;;;;;4.53;3.73;;;9.80;99.90;;;;;;5062390;28;20554;-81
2022/09/28 06:42:10;;;;;;;37.60;27.67;;;11.10;99.90;;;;;;5061095;28;20463;-84
2022/09/28 06:44:37;;;;;;;33.97;26.40;;;11.50;99.90;;;;;;5054942;28;20451;-84
2022/09/28 06:47:04;;;;;;;37.33;27.27;;;11.10;99.90;;;;;;5054922;28;20539;-84
2022/09/28 06:49:31;;;;;;;31.73;25.47;;;10.80;99.90;;;;;;5052048;28;20454;-82
2022/09/28 06:51:57;;;;;;;31.97;25.20;;;10.60;99.90;;;;;;5058561;28;20498;-84
2022/09/28 06:54:25;;;;;;;28.40;22.60;;;10.40;99.90;;;;;;5057180;28;20455;-85
2022/09/28 06:56:52;;;;;;;28.93;23.37;;;10.30;99.90;;;;;;5057126;28;20465;-83
2022/09/28 06:59:19;;;;;;;31.03;24.37;;;10.30;99.90;;;;;;5058556;28;20459;-83
2022/09/28 07:01:46;;;;;;;33.20;24.30;;;10.20;99.90;;;;;;5069907;28;20942;-84
2022/09/28 07:04:13;;;;;;;28.07;22.83;;;10.20;99.90;;;;;;5073171;28;20462;-84
2022/09/28 07:06:40;;;;;;;30.40;23.30;;;10.20;99.90;;;;;;5052198;28;20474;-85
2022/09/28 07:09:07;;;;;;;31.63;23.90;;;10.20;99.90;;;;;;5055404;28;20524;-84
2022/09/28 07:11:39;;;;;;;31.70;24.90;;;10.00;99.90;;;;;;5057735;28;20992;-84
2022/09/28 07:14:08;;;;;;;37.60;26.67;;;10.10;99.90;;;;;;5059225;28;20455;-84
2022/09/28 07:16:36;;;;;;;27.83;23.60;;;10.00;99.90;;;;;;5061620;28;20455;-85
2022/09/28 07:19:03;;;;;;;33.73;22.30;;;10.00;99.90;;;;;;5062148;28;20459;-84
2022/09/28 07:21:29;;;;;;;32.53;27.30;;;10.00;99.90;;;;;;5062321;28;20662;-83
2022/09/28 07:23:56;;;;;;;30.73;24.60;;;10.00;99.90;;;;;;5056355;28;20846;-82
2022/09/28 07:26:24;;;;;;;30.33;24.80;;;10.00;99.90;;;;;;5058288;28;20460;-84
2022/09/28 07:28:54;;;;;;;36.10;25.87;;;10.00;99.90;;;;;;5051407;28;20453;-87
2022/09/28 07:31:24;;;;;;;31.80;22.63;;;9.90;99.90;;;;;;5079851;28;20488;-84
2022/09/28 07:33:52;;;;;;;34.77;26.70;;;10.00;99.90;;;;;;5070245;28;20457;-84
2022/09/28 07:36:19;;;;;;;38.90;27.90;;;10.00;99.90;;;;;;5058462;28;20459;-84
2022/09/28 07:38:46;;;;;;;29.33;24.40;;;9.90;99.90;;;;;;5053862;28;20542;-83
2022/09/28 07:41:13;;;;;;;32.00;25.40;;;10.00;99.90;;;;;;5055574;28;20839;-83
2022/09/28 07:43:41;;;;;;;35.47;28.00;;;10.00;99.90;;;;;;5050944;28;20460;-84
2022/09/28 07:46:11;;;;;;;39.17;30.40;;;10.00;99.90;;;;;;5052703;28;20448;-85
2022/09/28 07:48:40;;;;;;;38.60;29.10;;;9.90;99.90;;;;;;5052787;28;20559;-85
2022/09/28 07:51:07;;;;;;;37.30;28.80;;;9.90;99.90;;;;;;5062289;28;20490;-84
2022/09/28 07:53:34;;;;;;;39.33;28.63;;;10.00;99.90;;;;;;5081754;28;20456;-85
2022/09/28 07:56:06;;;;;;;38.10;27.10;;;10.10;99.90;;;;;;5063071;28;20450;-84
2022/09/28 07:58:33;;;;;;;34.23;26.70;;;10.20;99.90;;;;;;5040976;28;20520;-85
2022/09/28 08:01:05;;;;;;;34.27;25.90;;;10.30;99.90;;;;;;5041271;28;20482;-84
2022/09/28 08:03:33;;;;;;;37.77;28.60;;;10.30;99.90;;;;;;5041985;28;20448;-85
2022/09/28 08:06:01;;;;;;;38.37;28.97;;;10.30;99.90;;;;;;5058678;28;20462;-85
2022/09/28 08:08:28;;;;;;;37.43;28.10;;;10.20;99.90;;;;;;5075683;28;20453;-83
2022/09/28 08:10:56;;;;;;;35.97;28.00;;;10.20;99.90;;;;;;5068655;28;20485;-85
2022/09/28 08:13:24;;;;;;;34.17;27.43;;;10.20;99.90;;;;;;5080654;28;20440;-84
2022/09/28 08:15:51;;;;;;;30.23;24.23;;;10.20;99.90;;;;;;5071282;28;20461;-83
2022/09/28 08:18:18;;;;;;;75.23;35.43;;;10.30;99.90;;;;;;5075348;28;20548;-83
2022/09/28 08:23:31;;;;;;;32.80;24.17;;;11.40;99.90;;;;;;5058178;28;20510;-85
2022/09/28 08:25:58;;;;;;;32.23;26.20;;;11.10;99.90;;;;;;5059148;28;20456;-85
2022/09/28 08:28:25;;;;;;;29.57;23.13;;;10.90;99.90;;;;;;5060506;28;20440;-84
2022/09/28 08:30:53;;;;;;;33.00;23.00;;;10.80;99.90;;;;;;5060740;28;21073;-83
2022/09/28 08:33:21;;;;;;;24.47;20.73;;;10.70;99.90;;;;;;5061423;28;20487;-84
2022/09/28 08:35:56;;;;;;;29.90;23.87;;;10.70;99.90;;;;;;5063603;28;20459;-84
2022/09/28 08:38:23;;;;;;;25.07;21.40;;;10.70;99.90;;;;;;5070248;28;20465;-85
2022/09/28 08:40:59;;;;;;;24.13;20.27;;;10.60;99.90;;;;;;5062728;28;20463;-85
2022/09/28 08:43:52;;;;;;;23.87;21.00;;;10.40;99.90;;;;;;5058155;28;20479;-85
2022/09/28 08:46:22;;;;;;;21.60;18.60;;;10.40;99.90;;;;;;5049580;28;20487;-85
2022/09/28 08:48:55;;;;;;;22.20;18.30;;;10.30;99.90;;;;;;5060527;28;20466;-85
2022/09/28 08:51:28;;;;;;;22.00;19.63;;;10.40;99.90;;;;;;5060852;28;20498;-84
2022/09/28 08:54:04;;;;;;;25.37;21.90;;;10.50;99.90;;;;;;5058438;28;20432;-84
2022/09/28 08:56:39;;;;;;;25.17;20.03;;;10.60;99.90;;;;;;5060307;28;20462;-84
2022/09/28 08:59:12;;;;;;;26.80;21.33;;;10.70;99.90;;;;;;5056609;28;20458;-85
2022/09/28 09:01:46;;;;;;;28.50;22.97;;;10.70;99.90;;;;;;5055101;28;20472;-83
2022/09/28 09:04:13;;;;;;;26.77;22.00;;;10.70;99.90;;;;;;5063617;28;20479;-85
2022/09/28 09:07:08;;;;;;;25.00;21.10;;;10.80;99.90;;;;;;5062427;28;20821;-84
2022/09/28 09:09:47;;;;;;;33.17;22.57;;;10.80;99.90;;;;;;5058638;28;20996;-84
2022/09/28 09:12:22;;;;;;;26.70;21.80;;;10.80;99.90;;;;;;5057004;28;20973;-84
2022/09/28 09:15:10;;;;;;;26.20;18.90;;;10.90;99.90;;;;;;5055723;28;20542;-83
2022/09/28 09:17:47;;;;;;;22.97;17.70;;;10.70;99.90;;;;;;5057837;28;20446;-84
2022/09/28 09:20:19;;;;;;;17.83;13.13;;;10.70;99.90;;;;;;5055883;28;20510;-84
2022/09/28 09:22:58;;;;;;;19.83;13.90;;;10.80;99.90;;;;;;5058970;28;20468;-84
2022/09/28 09:25:28;;;;;;;14.00;12.53;;;10.80;99.90;;;;;;5059535;28;20458;-85
2022/09/28 09:28:37;;;;;;;17.20;13.50;;;10.90;99.90;;;;;;5061773;28;20863;-84
2022/09/28 09:31:15;;;;;;;13.40;11.37;;;10.90;99.90;;;;;;5037139;28;20479;-84
2022/09/28 09:33:56;;;;;;;17.17;13.33;;;11.00;99.90;;;;;;5058319;28;20472;-83
2022/09/28 09:36:34;;;;;;;18.00;14.03;;;11.10;99.90;;;;;;5058509;28;20453;-84
2022/09/28 09:39:19;;;;;;;17.80;15.90;;;11.10;99.90;;;;;;5058233;28;20444;-84
2022/09/28 09:41:58;;;;;;;13.30;11.80;;;11.10;99.90;;;;;;5059206;28;20448;-84
2022/09/28 09:44:52;;;;;;;14.80;11.87;;;11.10;99.90;;;;;;5057196;28;20458;-84
2022/09/28 09:47:23;;;;;;;13.93;11.93;;;11.10;99.90;;;;;;5056183;28;20451;-84
2022/09/28 09:49:56;;;;;;;17.73;12.63;;;11.20;99.90;;;;;;5053234;28;20479;-84
2022/09/28 09:52:27;;;;;;;11.27;10.10;;;11.30;99.90;;;;;;5054266;28;20491;-84
2022/09/28 09:55:03;;;;;;;12.37;9.00;;;11.40;99.90;;;;;;5053891;28;20559;-83
2022/09/28 09:57:34;;;;;;;10.73;9.60;;;11.50;99.90;;;;;;5052613;28;20546;-85
2022/09/28 10:00:03;;;;;;;11.30;10.07;;;11.50;99.90;;;;;;5057095;28;20487;-85
2022/09/28 10:02:34;;;;;;;14.87;11.87;;;11.50;99.90;;;;;;5055286;28;20964;-85
2022/09/28 10:05:07;;;;;;;11.90;9.77;;;11.80;99.90;;;;;;5059242;28;20452;-85
2022/09/28 10:07:39;;;;;;;15.17;11.87;;;12.00;99.90;;;;;;5057365;28;20559;-85
2022/09/28 10:10:13;;;;;;;18.57;14.50;;;12.00;99.90;;;;;;5056447;28;20480;-84
2022/09/28 10:12:40;;;;;;;15.00;12.50;;;11.90;99.90;;;;;;5060896;28;20509;-84
2022/09/28 10:15:12;;;;;;;16.73;14.17;;;12.00;99.90;;;;;;5063198;28;20462;-85
2022/09/28 10:17:39;;;;;;;18.27;13.93;;;12.00;99.90;;;;;;5057909;28;20609;-85
2022/09/28 10:20:11;;;;;;;14.80;13.03;;;12.10;99.90;;;;;;5059480;28;20475;-84
2022/09/28 10:22:39;;;;;;;14.10;12.60;;;12.10;99.90;;;;;;5061053;28;20829;-85
2022/09/28 10:25:08;;;;;;;11.67;9.77;;;12.20;99.90;;;;;;5059804;28;20454;-85
2022/09/28 10:27:38;;;;;;;11.77;10.50;;;12.30;99.90;;;;;;5054386;28;20446;-85
2022/09/28 10:30:15;;;;;;;6.50;5.90;;;12.50;99.90;;;;;;5056296;28;20478;-85
2022/09/28 10:32:44;;;;;;;7.13;5.90;;;12.60;99.90;;;;;;5055147;28;20487;-85
2022/09/28 10:35:20;;;;;;;5.70;5.10;;;12.80;99.90;;;;;;5056150;28;20960;-85
2022/09/28 10:37:54;;;;;;;5.07;4.57;;;12.80;99.90;;;;;;5056100;28;20524;-85
2022/09/28 10:40:34;;;;;;;5.63;4.97;;;13.30;99.90;;;;;;5052215;28;20478;-86
2022/09/28 10:43:03;;;;;;;6.00;4.83;;;13.80;99.90;;;;;;5055765;28;20450;-85
2022/09/28 10:45:35;;;;;;;4.87;4.37;;;14.60;99.90;;;;;;5056057;28;20463;-85
2022/09/28 10:48:10;;;;;;;5.60;4.83;;;14.50;99.90;;;;;;5052314;28;20443;-86
2022/09/28 10:50:38;;;;;;;5.30;4.80;;;14.60;99.90;;;;;;5056957;28;20485;-86
2022/09/28 10:53:12;;;;;;;7.47;4.93;;;15.10;99.90;;;;;;5059080;28;20492;-86
2022/09/28 10:55:58;;;;;;;5.33;4.70;;;15.00;99.90;;;;;;5058686;28;20468;-84
2022/09/28 10:58:27;;;;;;;7.10;5.10;;;15.00;99.90;;;;;;5062297;28;20870;-85
2022/09/28 11:01:04;;;;;;;6.40;5.37;;;15.00;99.90;;;;;;5056691;28;20472;-86
2022/09/28 11:03:33;;;;;;;5.90;5.07;;;14.50;99.90;;;;;;5054981;28;20458;-86
2022/09/28 11:06:02;;;;;;;9.33;7.07;;;14.30;99.90;;;;;;5053377;28;20465;-87
2022/09/28 11:08:37;;;;;;;9.53;8.20;;;14.40;99.90;;;;;;5058255;28;20464;-86
2022/09/28 11:11:13;;;;;;;8.70;7.80;;;14.40;99.90;;;;;;5058642;28;20487;-84
2022/09/28 11:13:44;;;;;;;9.10;7.77;;;14.30;99.90;;;;;;5058343;28;20493;-83
2022/09/28 11:16:33;;;;;;;9.07;8.27;;;14.00;99.90;;;;;;5059417;28;20458;-85
2022/09/28 11:19:24;;;;;;;11.10;9.70;;;13.80;99.90;;;;;;5061858;28;20532;-84
2022/09/28 11:21:51;;;;;;;19.20;11.10;;;13.40;99.90;;;;;;5055468;28;20449;-84
2022/09/28 11:24:23;;;;;;;10.40;9.30;;;13.50;99.90;;;;;;5058510;28;20568;-85
2022/09/28 11:26:56;;;;;;;13.17;11.40;;;13.70;99.90;;;;;;5057006;28;20891;-85
2022/09/28 11:29:26;;;;;;;12.20;11.00;;;14.20;99.90;;;;;;5059051;28;20446;-85
2022/09/28 11:31:59;;;;;;;8.63;7.83;;;14.70;99.90;;;;;;5059611;28;20455;-86
2022/09/28 11:34:34;;;;;;;8.80;8.00;;;14.60;99.90;;;;;;5056900;28;20446;-84
2022/09/28 11:37:26;;;;;;;8.57;7.80;;;14.10;99.90;;;;;;5059894;28;20683;-86
2022/09/28 11:40:05;;;;;;;9.57;8.47;;;14.10;99.90;;;;;;5051741;28;20845;-85
2022/09/28 11:42:46;;;;;;;8.00;7.03;;;14.00;99.90;;;;;;5057774;28;20494;-84
2022/09/28 11:45:32;;;;;;;9.70;8.30;;;14.00;99.90;;;;;;5056697;28;20536;-84
2022/09/28 11:48:02;;;;;;;10.07;7.80;;;13.90;99.90;;;;;;5057402;28;20458;-86
2022/09/28 11:50:40;;;;;;;9.33;6.93;;;14.20;99.90;;;;;;5058169;28;20469;-85
2022/09/28 11:53:18;;;;;;;7.40;6.60;;;15.20;99.90;;;;;;5058448;28;20483;-84
2022/09/28 11:55:50;;;;;;;6.20;5.60;;;16.10;99.90;;;;;;5064810;28;21042;-85
2022/09/28 11:58:26;;;;;;;5.80;4.80;;;16.60;99.90;;;;;;5064201;28;20535;-84
2022/09/28 12:00:58;;;;;;;6.70;5.30;;;16.50;99.90;;;;;;5064334;28;20479;-85
2022/09/28 12:03:30;;;;;;;5.77;5.23;;;16.10;99.90;;;;;;5071466;28;20436;-85
2022/09/28 12:06:00;;;;;;;6.13;4.90;;;15.70;99.90;;;;;;5060597;28;20450;-85
2022/09/28 12:08:29;;;;;;;7.80;6.30;;;15.30;99.90;;;;;;5058383;28;20454;-85
2022/09/28 12:11:02;;;;;;;6.10;5.50;;;15.00;99.90;;;;;;5057453;28;20487;-86
2022/09/28 12:13:34;;;;;;;5.63;4.70;;;14.70;99.90;;;;;;5058339;28;20483;-83
2022/09/28 12:16:04;;;;;;;7.10;5.63;;;14.60;99.90;;;;;;5060352;28;20442;-84
2022/09/28 12:18:41;;;;;;;4.87;4.27;;;14.20;99.90;;;;;;5058378;28;20449;-83
2022/09/28 12:21:22;;;;;;;6.03;5.13;;;14.10;99.90;;;;;;5058523;28;20481;-84
2022/09/28 12:23:50;;;;;;;6.23;5.33;;;14.00;99.90;;;;;;5055983;28;20461;-84
2022/09/28 12:26:31;;;;;;;6.60;5.30;;;13.90;99.90;;;;;;5061310;28;20523;-83
2022/09/28 12:29:02;;;;;;;7.90;6.03;;;13.60;99.90;;;;;;5058466;28;20439;-83
2022/09/28 12:31:33;;;;;;;6.40;5.80;;;13.40;99.90;;;;;;5062030;28;20519;-84
2022/09/28 12:34:02;;;;;;;8.20;5.90;;;13.20;99.90;;;;;;5056770;28;20478;-83
2022/09/28 12:36:47;;;;;;;7.50;5.00;;;13.10;99.90;;;;;;5059813;28;20823;-85
2022/09/28 12:39:36;;;;;;;5.80;5.20;;;13.00;99.90;;;;;;5058272;28;20459;-83
2022/09/28 12:42:16;;;;;;;6.40;5.00;;;12.80;99.90;;;;;;5063948;28;20472;-83
2022/09/28 12:45:17;;;;;;;5.20;4.70;;;12.70;99.90;;;;;;5063026;28;20458;-85
2022/09/28 12:48:10;;;;;;;5.10;4.60;;;12.70;99.90;;;;;;5062569;28;20481;-84
2022/09/28 12:50:42;;;;;;;7.50;5.77;;;12.50;99.90;;;;;;5058177;28;20898;-84
2022/09/28 12:53:37;;;;;;;6.47;5.83;;;12.50;99.90;;;;;;5060162;28;20516;-84
2022/09/28 12:56:10;;;;;;;7.37;6.50;;;12.50;99.90;;;;;;5058174;28;20465;-84
2022/09/28 12:58:58;;;;;;;6.13;5.50;;;12.30;99.90;;;;;;5056800;28;20455;-84
2022/09/28 13:01:50;;;;;;;8.80;6.80;;;12.30;99.90;;;;;;5059886;28;20523;-85
2022/09/28 13:04:53;;;;;;;18.87;9.60;;;12.30;99.90;;;;;;5055254;28;20460;-83
2022/09/28 13:07:28;;;;;;;10.17;8.53;;;12.40;99.90;;;;;;5058404;28;20546;-83